sensor_id;sensor_type;location;lat;lon;timestamp;pressure;altitude;pressure_sealevel;temperature;humidity
19789;BME280;10054;59.332;18.244;2023-08-06T00:00:45;100680.11;;;13.97;100.00
19789;BME280;10054;59.332;18.244;2023-08-06T00:03:14;100681.06;;;13.96;100.00
19789;BME280;10054;59.332;18.244;2023-08-06T00:05:43;100677.20;;;13.95;100.00
19789;BME280;10054;59.332;18.244;2023-08-06T00:08:12;100679.97;;;13.93;100.00
19789;BME280;10054;59.332;18.244;2023-08-06T00:10:40;100680.56;;;13.91;100.00
19789;BME280;10054;59.332;18.244;2023-08-06T00:13:09;100687.68;;;13.91;100.00
19789;BME280;10054;59.332;18.244;2023-08-06T00:15:38;100683.45;;;13.88;100.00
19789;BME280;10054;59.332;18.244;2023-08-06T00:18:07;100685.85;;;13.86;100.00
19789;BME280;10054;59.332;18.244;2023-08-06T00:20:40;100684.76;;;13.83;100.00
19789;BME280;10054;59.332;18.244;2023-08-06T00:23:08;100685.83;;;13.80;100.00
19789;BME280;10054;59.332;18.244;2023-08-06T00:25:37;100676.30;;;13.77;100.00
19789;BME280;10054;59.332;18.244;2023-08-06T00:28:06;100674.72;;;13.75;100.00
19789;BME280;10054;59.332;18.244;2023-08-06T00:30:35;100683.27;;;13.73;100.00
19789;BME280;10054;59.332;18.244;2023-08-06T00:33:03;100677.83;;;13.69;100.00
19789;BME280;10054;59.332;18.244;2023-08-06T00:35:32;100671.06;;;13.65;100.00
19789;BME280;10054;59.332;18.244;2023-08-06T00:38:01;100665.99;;;13.62;100.00
19789;BME280;10054;59.332;18.244;2023-08-06T00:40:30;100668.14;;;13.57;100.00
19789;BME280;10054;59.332;18.244;2023-08-06T00:42:58;100668.48;;;13.52;100.00
19789;BME280;10054;59.332;18.244;2023-08-06T00:45:28;100675.22;;;13.51;100.00
19789;BME280;10054;59.332;18.244;2023-08-06T00:47:58;100673.27;;;13.47;100.00
19789;BME280;10054;59.332;18.244;2023-08-06T00:50:27;100675.92;;;13.47;100.00
19789;BME280;10054;59.332;18.244;2023-08-06T00:52:56;100672.53;;;13.45;100.00
19789;BME280;10054;59.332;18.244;2023-08-06T00:55:25;100672.28;;;13.42;100.00
19789;BME280;10054;59.332;18.244;2023-08-06T00:57:54;100672.98;;;13.39;100.00
19789;BME280;10054;59.332;18.244;2023-08-06T01:00:24;100675.05;;;13.35;100.00
19789;BME280;10054;59.332;18.244;2023-08-06T01:02:54;100675.75;;;13.32;100.00
19789;BME280;10054;59.332;18.244;2023-08-06T01:05:23;100674.65;;;13.29;100.00
19789;BME280;10054;59.332;18.244;2023-08-06T01:11:08;100671.13;;;13.23;100.00
19789;BME280;10054;59.332;18.244;2023-08-06T01:16:10;100680.73;;;13.18;100.00
19789;BME280;10054;59.332;18.244;2023-08-06T01:18:40;100679.52;;;13.17;100.00
19789;BME280;10054;59.332;18.244;2023-08-06T01:21:12;100673.92;;;13.14;100.00
19789;BME280;10054;59.332;18.244;2023-08-06T01:23:42;100674.03;;;13.12;100.00
19789;BME280;10054;59.332;18.244;2023-08-06T01:29:03;100676.91;;;13.09;100.00
19789;BME280;10054;59.332;18.244;2023-08-06T01:31:32;100668.70;;;13.07;100.00
19789;BME280;10054;59.332;18.244;2023-08-06T01:34:03;100666.05;;;13.07;100.00
19789;BME280;10054;59.332;18.244;2023-08-06T01:36:33;100665.20;;;13.06;100.00
19789;BME280;10054;59.332;18.244;2023-08-06T01:39:02;100666.53;;;13.06;100.00
19789;BME280;10054;59.332;18.244;2023-08-06T01:41:32;100668.44;;;13.04;100.00
19789;BME280;10054;59.332;18.244;2023-08-06T01:44:01;100666.23;;;12.98;100.00
19789;BME280;10054;59.332;18.244;2023-08-06T01:46:29;100664.02;;;12.92;100.00
19789;BME280;10054;59.332;18.244;2023-08-06T01:48:58;100660.02;;;12.87;100.00
19789;BME280;10054;59.332;18.244;2023-08-06T01:51:27;100656.26;;;12.83;100.00
19789;BME280;10054;59.332;18.244;2023-08-06T01:53:56;100664.42;;;12.80;100.00
19789;BME280;10054;59.332;18.244;2023-08-06T01:56:25;100664.90;;;12.80;100.00
19789;BME280;10054;59.332;18.244;2023-08-06T01:58:54;100664.05;;;12.79;100.00
19789;BME280;10054;59.332;18.244;2023-08-06T02:01:23;100655.73;;;12.78;100.00
19789;BME280;10054;59.332;18.244;2023-08-06T02:03:51;100665.01;;;12.78;100.00
19789;BME280;10054;59.332;18.244;2023-08-06T02:06:20;100669.09;;;12.77;100.00
19789;BME280;10054;59.332;18.244;2023-08-06T02:08:49;100669.19;;;12.75;100.00
19789;BME280;10054;59.332;18.244;2023-08-06T02:11:18;100664.22;;;12.71;100.00
19789;BME280;10054;59.332;18.244;2023-08-06T02:13:47;100659.88;;;12.70;100.00
19789;BME280;10054;59.332;18.244;2023-08-06T02:16:19;100664.81;;;12.69;100.00
19789;BME280;10054;59.332;18.244;2023-08-06T02:18:48;100667.56;;;12.67;100.00
19789;BME280;10054;59.332;18.244;2023-08-06T02:21:17;100662.48;;;12.64;100.00
19789;BME280;10054;59.332;18.244;2023-08-06T02:23:46;100660.45;;;12.62;100.00
19789;BME280;10054;59.332;18.244;2023-08-06T02:26:14;100660.93;;;12.62;100.00
19789;BME280;10054;59.332;18.244;2023-08-06T02:28:44;100657.06;;;12.60;100.00
19789;BME280;10054;59.332;18.244;2023-08-06T02:31:14;100656.59;;;12.61;100.00
19789;BME280;10054;59.332;18.244;2023-08-06T02:33:43;100663.20;;;12.61;100.00
19789;BME280;10054;59.332;18.244;2023-08-06T02:36:12;100662.95;;;12.58;100.00
19789;BME280;10054;59.332;18.244;2023-08-06T02:38:41;100660.04;;;12.56;100.00
19789;BME280;10054;59.332;18.244;2023-08-06T02:41:10;100661.84;;;12.55;100.00
19789;BME280;10054;59.332;18.244;2023-08-06T02:43:38;100658.34;;;12.55;100.00
19789;BME280;10054;59.332;18.244;2023-08-06T02:46:07;100653.64;;;12.53;100.00
19789;BME280;10054;59.332;18.244;2023-08-06T02:48:36;100653.27;;;12.52;100.00
19789;BME280;10054;59.332;18.244;2023-08-06T02:51:05;100656.02;;;12.50;100.00
19789;BME280;10054;59.332;18.244;2023-08-06T02:53:34;100661.31;;;12.50;100.00
19789;BME280;10054;59.332;18.244;2023-08-06T02:56:05;100655.55;;;12.50;100.00
19789;BME280;10054;59.332;18.244;2023-08-06T02:58:35;100654.33;;;12.49;100.00
19789;BME280;10054;59.332;18.244;2023-08-06T03:01:06;100657.92;;;12.48;100.00
19789;BME280;10054;59.332;18.244;2023-08-06T03:03:37;100664.06;;;12.48;100.00
19789;BME280;10054;59.332;18.244;2023-08-06T03:06:07;100666.50;;;12.52;100.00
19789;BME280;10054;59.332;18.244;2023-08-06T03:08:37;100674.33;;;12.53;100.00
19789;BME280;10054;59.332;18.244;2023-08-06T03:11:06;100674.01;;;12.58;100.00
19789;BME280;10054;59.332;18.244;2023-08-06T03:13:35;100677.39;;;12.60;100.00
19789;BME280;10054;59.332;18.244;2023-08-06T03:16:04;100680.16;;;12.64;100.00
19789;BME280;10054;59.332;18.244;2023-08-06T03:18:33;100691.97;;;12.65;100.00
19789;BME280;10054;59.332;18.244;2023-08-06T03:21:04;100694.03;;;12.67;100.00
19789;BME280;10054;59.332;18.244;2023-08-06T03:23:33;100694.66;;;12.71;100.00
19789;BME280;10054;59.332;18.244;2023-08-06T03:26:05;100695.03;;;12.72;100.00
19789;BME280;10054;59.332;18.244;2023-08-06T03:28:34;100698.89;;;12.73;100.00
19789;BME280;10054;59.332;18.244;2023-08-06T03:31:03;100706.04;;;12.78;100.00
19789;BME280;10054;59.332;18.244;2023-08-06T03:33:40;100715.83;;;12.83;100.00
19789;BME280;10054;59.332;18.244;2023-08-06T03:36:10;100715.88;;;12.89;100.00
19789;BME280;10054;59.332;18.244;2023-08-06T03:38:39;100715.96;;;13.00;100.00
19789;BME280;10054;59.332;18.244;2023-08-06T03:41:08;100711.12;;;13.12;100.00
19789;BME280;10054;59.332;18.244;2023-08-06T03:43:38;100710.59;;;13.20;100.00
19789;BME280;10054;59.332;18.244;2023-08-06T03:46:08;100705.34;;;13.26;100.00
19789;BME280;10054;59.332;18.244;2023-08-06T03:48:37;100703.80;;;13.29;100.00
19789;BME280;10054;59.332;18.244;2023-08-06T03:51:06;100701.14;;;13.29;100.00
19789;BME280;10054;59.332;18.244;2023-08-06T03:53:36;100700.33;;;13.34;100.00
19789;BME280;10054;59.332;18.244;2023-08-06T03:56:04;100704.23;;;13.46;100.00
19789;BME280;10054;59.332;18.244;2023-08-06T03:58:34;100702.88;;;13.65;100.00
19789;BME280;10054;59.332;18.244;2023-08-06T04:01:03;100700.44;;;13.86;100.00
19789;BME280;10054;59.332;18.244;2023-08-06T04:03:36;100700.88;;;14.09;100.00
19789;BME280;10054;59.332;18.244;2023-08-06T04:06:06;100702.84;;;14.35;100.00
19789;BME280;10054;59.332;18.244;2023-08-06T04:08:34;100697.36;;;14.60;100.00
19789;BME280;10054;59.332;18.244;2023-08-06T04:11:03;100694.23;;;14.83;100.00
19789;BME280;10054;59.332;18.244;2023-08-06T04:13:33;100693.58;;;15.07;100.00
19789;BME280;10054;59.332;18.244;2023-08-06T04:16:02;100683.38;;;15.35;100.00
19789;BME280;10054;59.332;18.244;2023-08-06T04:18:32;100690.84;;;15.58;100.00
19789;BME280;10054;59.332;18.244;2023-08-06T04:21:02;100689.42;;;15.74;100.00
19789;BME280;10054;59.332;18.244;2023-08-06T04:23:30;100689.11;;;15.89;100.00
19789;BME280;10054;59.332;18.244;2023-08-06T04:26:01;100688.34;;;15.98;100.00
19789;BME280;10054;59.332;18.244;2023-08-06T04:28:31;100684.69;;;16.04;100.00
19789;BME280;10054;59.332;18.244;2023-08-06T04:31:00;100664.47;;;16.07;100.00
19789;BME280;10054;59.332;18.244;2023-08-06T04:33:30;100661.06;;;16.11;100.00
19789;BME280;10054;59.332;18.244;2023-08-06T04:36:01;100658.98;;;16.15;100.00
19789;BME280;10054;59.332;18.244;2023-08-06T04:38:30;100649.89;;;16.17;100.00
19789;BME280;10054;59.332;18.244;2023-08-06T04:40:59;100654.83;;;16.22;100.00
19789;BME280;10054;59.332;18.244;2023-08-06T04:43:28;100661.70;;;16.24;100.00
19789;BME280;10054;59.332;18.244;2023-08-06T04:45:57;100669.42;;;16.27;100.00
19789;BME280;10054;59.332;18.244;2023-08-06T04:48:26;100663.61;;;16.28;100.00
19789;BME280;10054;59.332;18.244;2023-08-06T04:50:55;100668.94;;;16.28;100.00
19789;BME280;10054;59.332;18.244;2023-08-06T04:53:23;100680.66;;;16.31;100.00
19789;BME280;10054;59.332;18.244;2023-08-06T04:55:52;100676.89;;;16.33;100.00
19789;BME280;10054;59.332;18.244;2023-08-06T04:58:21;100676.89;;;16.33;100.00
19789;BME280;10054;59.332;18.244;2023-08-06T05:00:50;100675.55;;;16.33;100.00
19789;BME280;10054;59.332;18.244;2023-08-06T05:03:19;100670.40;;;16.26;100.00
19789;BME280;10054;59.332;18.244;2023-08-06T05:05:48;100669.07;;;16.26;100.00
19789;BME280;10054;59.332;18.244;2023-08-06T05:08:17;100660.73;;;16.25;100.00
19789;BME280;10054;59.332;18.244;2023-08-06T05:10:46;100659.98;;;16.29;100.00
19789;BME280;10054;59.332;18.244;2023-08-06T05:13:15;100661.76;;;16.34;100.00
19789;BME280;10054;59.332;18.244;2023-08-06T05:15:44;100662.84;;;16.47;100.00
19789;BME280;10054;59.332;18.244;2023-08-06T05:18:14;100658.72;;;16.63;100.00
19789;BME280;10054;59.332;18.244;2023-08-06T05:20:43;100658.83;;;16.83;100.00
19789;BME280;10054;59.332;18.244;2023-08-06T05:23:11;100668.44;;;17.04;100.00
19789;BME280;10054;59.332;18.244;2023-08-06T05:25:40;100668.13;;;17.32;100.00
19789;BME280;10054;59.332;18.244;2023-08-06T05:28:09;100668.91;;;17.48;100.00
19789;BME280;10054;59.332;18.244;2023-08-06T05:30:41;100661.09;;;17.66;100.00
19789;BME280;10054;59.332;18.244;2023-08-06T05:33:10;100663.13;;;17.78;100.00
19789;BME280;10054;59.332;18.244;2023-08-06T05:35:40;100665.83;;;17.91;100.00
19789;BME280;10054;59.332;18.244;2023-08-06T05:38:09;100665.40;;;18.05;100.00
19789;BME280;10054;59.332;18.244;2023-08-06T05:40:38;100661.11;;;18.09;100.00
19789;BME280;10054;59.332;18.244;2023-08-06T05:43:06;100657.25;;;18.07;100.00
19789;BME280;10054;59.332;18.244;2023-08-06T05:45:35;100650.08;;;18.08;100.00
19789;BME280;10054;59.332;18.244;2023-08-06T05:48:04;100651.34;;;18.03;100.00
19789;BME280;10054;59.332;18.244;2023-08-06T05:50:33;100650.30;;;18.00;100.00
19789;BME280;10054;59.332;18.244;2023-08-06T05:53:02;100645.58;;;18.08;100.00
19789;BME280;10054;59.332;18.244;2023-08-06T05:55:31;100652.95;;;18.10;100.00
19789;BME280;10054;59.332;18.244;2023-08-06T05:58:00;100652.75;;;18.08;100.00
19789;BME280;10054;59.332;18.244;2023-08-06T06:00:30;100647.34;;;18.03;100.00
19789;BME280;10054;59.332;18.244;2023-08-06T06:02:58;100652.25;;;18.08;100.00
19789;BME280;10054;59.332;18.244;2023-08-06T06:05:27;100645.59;;;17.98;100.00
19789;BME280;10054;59.332;18.244;2023-08-06T06:07:56;100651.30;;;17.90;100.00
19789;BME280;10054;59.332;18.244;2023-08-06T06:10:24;100655.38;;;17.84;100.00
19789;BME280;10054;59.332;18.244;2023-08-06T06:12:53;100654.53;;;17.84;100.00
19789;BME280;10054;59.332;18.244;2023-08-06T06:15:22;100661.41;;;17.86;100.00
19789;BME280;10054;59.332;18.244;2023-08-06T06:17:51;100658.25;;;17.87;100.00
19789;BME280;10054;59.332;18.244;2023-08-06T06:20:20;100643.86;;;17.84;100.00
19789;BME280;10054;59.332;18.244;2023-08-06T06:22:49;100638.77;;;17.77;100.00
19789;BME280;10054;59.332;18.244;2023-08-06T06:25:18;100633.36;;;17.82;100.00
19789;BME280;10054;59.332;18.244;2023-08-06T06:27:47;100636.90;;;17.87;100.00
19789;BME280;10054;59.332;18.244;2023-08-06T06:30:17;100636.83;;;17.83;100.00
19789;BME280;10054;59.332;18.244;2023-08-06T06:32:45;100639.33;;;17.80;100.00
19789;BME280;10054;59.332;18.244;2023-08-06T06:35:14;100634.38;;;17.85;100.00
19789;BME280;10054;59.332;18.244;2023-08-06T06:37:43;100630.44;;;17.89;100.00
19789;BME280;10054;59.332;18.244;2023-08-06T06:40:12;100625.23;;;17.97;100.00
19789;BME280;10054;59.332;18.244;2023-08-06T06:42:40;100626.97;;;18.02;100.00
19789;BME280;10054;59.332;18.244;2023-08-06T06:45:10;100624.43;;;18.11;100.00
19789;BME280;10054;59.332;18.244;2023-08-06T06:47:38;100623.36;;;18.17;100.00
19789;BME280;10054;59.332;18.244;2023-08-06T06:50:08;100616.31;;;18.26;100.00
19789;BME280;10054;59.332;18.244;2023-08-06T06:52:37;100611.46;;;18.25;100.00
19789;BME280;10054;59.332;18.244;2023-08-06T06:55:07;100614.48;;;18.26;100.00
19789;BME280;10054;59.332;18.244;2023-08-06T06:57:36;100603.80;;;18.26;100.00
19789;BME280;10054;59.332;18.244;2023-08-06T07:00:05;100599.39;;;18.21;100.00
19789;BME280;10054;59.332;18.244;2023-08-06T07:02:34;100596.37;;;18.20;100.00
19789;BME280;10054;59.332;18.244;2023-08-06T07:05:03;100593.14;;;18.17;100.00
19789;BME280;10054;59.332;18.244;2023-08-06T07:07:33;100606.00;;;18.17;100.00
19789;BME280;10054;59.332;18.244;2023-08-06T07:10:03;100598.05;;;18.21;100.00
19789;BME280;10054;59.332;18.244;2023-08-06T07:12:32;100601.27;;;18.25;100.00
19789;BME280;10054;59.332;18.244;2023-08-06T07:15:01;100593.95;;;18.27;100.00
19789;BME280;10054;59.332;18.244;2023-08-06T07:17:30;100599.50;;;18.29;100.00
19789;BME280;10054;59.332;18.244;2023-08-06T07:19:59;100603.25;;;18.23;100.00
19789;BME280;10054;59.332;18.244;2023-08-06T07:22:29;100610.03;;;18.31;100.00
19789;BME280;10054;59.332;18.244;2023-08-06T07:24:57;100606.29;;;18.37;100.00
19789;BME280;10054;59.332;18.244;2023-08-06T07:27:26;100603.37;;;18.45;100.00
19789;BME280;10054;59.332;18.244;2023-08-06T07:29:55;100595.37;;;18.45;100.00
19789;BME280;10054;59.332;18.244;2023-08-06T07:32:25;100594.88;;;18.45;100.00
19789;BME280;10054;59.332;18.244;2023-08-06T07:34:55;100600.02;;;18.43;100.00
19789;BME280;10054;59.332;18.244;2023-08-06T07:37:25;100602.28;;;18.37;100.00
19789;BME280;10054;59.332;18.244;2023-08-06T07:39:56;100604.49;;;18.28;100.00
19789;BME280;10054;59.332;18.244;2023-08-06T07:42:25;100607.08;;;18.34;100.00
19789;BME280;10054;59.332;18.244;2023-08-06T07:44:55;100610.20;;;18.43;100.00
19789;BME280;10054;59.332;18.244;2023-08-06T07:47:25;100608.48;;;18.52;100.00
19789;BME280;10054;59.332;18.244;2023-08-06T07:49:53;100600.77;;;18.62;100.00
19789;BME280;10054;59.332;18.244;2023-08-06T07:52:22;100601.17;;;18.67;100.00
19789;BME280;10054;59.332;18.244;2023-08-06T07:54:51;100601.32;;;18.80;100.00
19789;BME280;10054;59.332;18.244;2023-08-06T07:57:20;100603.84;;;18.81;99.60
19789;BME280;10054;59.332;18.244;2023-08-06T07:59:49;100599.09;;;18.89;100.00
19789;BME280;10054;59.332;18.244;2023-08-06T08:02:18;100596.91;;;18.88;99.04
19789;BME280;10054;59.332;18.244;2023-08-06T08:04:47;100599.63;;;18.92;99.93
19789;BME280;10054;59.332;18.244;2023-08-06T08:07:16;100594.62;;;18.93;95.27
19789;BME280;10054;59.332;18.244;2023-08-06T08:09:48;100590.23;;;18.88;97.81
19789;BME280;10054;59.332;18.244;2023-08-06T08:12:17;100588.69;;;18.86;96.00
19789;BME280;10054;59.332;18.244;2023-08-06T08:14:45;100591.02;;;18.85;95.72
19789;BME280;10054;59.332;18.244;2023-08-06T08:17:14;100589.84;;;18.83;92.28
19789;BME280;10054;59.332;18.244;2023-08-06T08:19:44;100591.66;;;18.83;95.50
19789;BME280;10054;59.332;18.244;2023-08-06T08:22:12;100596.52;;;18.83;95.92
19789;BME280;10054;59.332;18.244;2023-08-06T08:24:41;100603.89;;;18.85;97.23
19789;BME280;10054;59.332;18.244;2023-08-06T08:27:10;100609.04;;;18.83;96.57
19789;BME280;10054;59.332;18.244;2023-08-06T08:29:39;100613.50;;;18.78;96.29
19789;BME280;10054;59.332;18.244;2023-08-06T08:32:07;100622.30;;;18.75;98.05
19789;BME280;10054;59.332;18.244;2023-08-06T08:34:39;100624.73;;;18.68;97.61
19789;BME280;10054;59.332;18.244;2023-08-06T08:37:08;100622.90;;;18.68;98.59
19789;BME280;10054;59.332;18.244;2023-08-06T08:39:37;100621.56;;;18.68;99.68
19789;BME280;10054;59.332;18.244;2023-08-06T08:42:06;100613.69;;;18.67;100.00
19789;BME280;10054;59.332;18.244;2023-08-06T08:44:35;100615.77;;;18.73;100.00
19789;BME280;10054;59.332;18.244;2023-08-06T08:47:10;100620.63;;;18.74;99.59
19789;BME280;10054;59.332;18.244;2023-08-06T08:49:40;100623.09;;;18.71;99.37
19789;BME280;10054;59.332;18.244;2023-08-06T08:52:10;100613.30;;;18.76;100.00
19789;BME280;10054;59.332;18.244;2023-08-06T08:54:40;100608.94;;;18.75;98.15
19789;BME280;10054;59.332;18.244;2023-08-06T08:57:10;100607.31;;;18.78;98.71
19789;BME280;10054;59.332;18.244;2023-08-06T08:59:39;100608.50;;;18.79;98.47
19789;BME280;10054;59.332;18.244;2023-08-06T09:02:10;100609.98;;;18.78;97.93
19789;BME280;10054;59.332;18.244;2023-08-06T09:04:40;100607.41;;;18.72;97.82
19789;BME280;10054;59.332;18.244;2023-08-06T09:07:11;100609.09;;;18.73;99.29
19789;BME280;10054;59.332;18.244;2023-08-06T09:09:41;100599.09;;;18.75;99.96
19789;BME280;10054;59.332;18.244;2023-08-06T09:12:15;100590.43;;;18.77;100.00
19789;BME280;10054;59.332;18.244;2023-08-06T09:14:45;100582.52;;;18.71;100.00
19789;BME280;10054;59.332;18.244;2023-08-06T09:17:13;100574.50;;;18.71;99.20
19789;BME280;10054;59.332;18.244;2023-08-06T09:19:44;100579.69;;;18.73;99.61
19789;BME280;10054;59.332;18.244;2023-08-06T09:22:15;100570.83;;;18.73;100.00
19789;BME280;10054;59.332;18.244;2023-08-06T09:24:44;100568.02;;;18.74;100.00
19789;BME280;10054;59.332;18.244;2023-08-06T09:27:13;100568.02;;;18.74;100.00
19789;BME280;10054;59.332;18.244;2023-08-06T09:29:43;100559.65;;;18.73;100.00
19789;BME280;10054;59.332;18.244;2023-08-06T09:32:13;100552.23;;;18.67;100.00
19789;BME280;10054;59.332;18.244;2023-08-06T09:34:46;100542.38;;;18.67;100.00
19789;BME280;10054;59.332;18.244;2023-08-06T09:37:15;100538.08;;;18.70;100.00
19789;BME280;10054;59.332;18.244;2023-08-06T09:39:44;100533.57;;;18.71;100.00
19789;BME280;10054;59.332;18.244;2023-08-06T09:42:14;100526.34;;;18.67;100.00
19789;BME280;10054;59.332;18.244;2023-08-06T09:44:43;100517.19;;;18.70;100.00
19789;BME280;10054;59.332;18.244;2023-08-06T09:47:12;100507.88;;;18.74;100.00
19789;BME280;10054;59.332;18.244;2023-08-06T09:49:43;100501.45;;;18.67;100.00
19789;BME280;10054;59.332;18.244;2023-08-06T09:52:13;100493.81;;;18.58;100.00
19789;BME280;10054;59.332;18.244;2023-08-06T09:54:44;100479.61;;;18.54;100.00
19789;BME280;10054;59.332;18.244;2023-08-06T09:57:15;100479.27;;;18.53;100.00
19789;BME280;10054;59.332;18.244;2023-08-06T09:59:44;100462.11;;;18.42;100.00
19789;BME280;10054;59.332;18.244;2023-08-06T10:02:14;100465.27;;;18.41;100.00
19789;BME280;10054;59.332;18.244;2023-08-06T10:04:45;100451.58;;;18.40;100.00
19789;BME280;10054;59.332;18.244;2023-08-06T10:07:14;100452.76;;;18.42;100.00
19789;BME280;10054;59.332;18.244;2023-08-06T10:09:45;100437.88;;;18.39;100.00
19789;BME280;10054;59.332;18.244;2023-08-06T10:12:14;100438.32;;;18.34;100.00
19789;BME280;10054;59.332;18.244;2023-08-06T10:14:46;100431.60;;;18.30;100.00
19789;BME280;10054;59.332;18.244;2023-08-06T10:17:16;100424.14;;;18.20;100.00
19789;BME280;10054;59.332;18.244;2023-08-06T10:19:46;100414.06;;;18.14;100.00
19789;BME280;10054;59.332;18.244;2023-08-06T10:22:17;100405.41;;;18.16;100.00
19789;BME280;10054;59.332;18.244;2023-08-06T10:24:56;100397.16;;;18.10;100.00
19789;BME280;10054;59.332;18.244;2023-08-06T10:30:27;100381.94;;;17.92;100.00
19789;BME280;10054;59.332;18.244;2023-08-06T10:32:58;100372.89;;;17.89;100.00
19789;BME280;10054;59.332;18.244;2023-08-06T10:35:34;100366.71;;;17.89;100.00
19789;BME280;10054;59.332;18.244;2023-08-06T10:41:03;100370.86;;;17.87;100.00
19789;BME280;10054;59.332;18.244;2023-08-06T10:43:36;100362.30;;;17.80;100.00
19789;BME280;10054;59.332;18.244;2023-08-06T10:45:49;100358.59;;;17.77;100.00
19789;BME280;10054;59.332;18.244;2023-08-06T10:48:28;100351.58;;;17.76;100.00
19789;BME280;10054;59.332;18.244;2023-08-06T10:50:46;100355.43;;;17.77;100.00
19789;BME280;10054;59.332;18.244;2023-08-06T10:53:17;100351.38;;;17.73;100.00
19789;BME280;10054;59.332;18.244;2023-08-06T10:55:46;100353.84;;;17.70;100.00
19789;BME280;10054;59.332;18.244;2023-08-06T10:58:18;100362.20;;;17.71;100.00
19789;BME280;10054;59.332;18.244;2023-08-06T11:00:47;100367.34;;;17.69;100.00
19789;BME280;10054;59.332;18.244;2023-08-06T11:03:16;100371.34;;;17.69;100.00
19789;BME280;10054;59.332;18.244;2023-08-06T11:05:51;100373.66;;;17.68;100.00
19789;BME280;10054;59.332;18.244;2023-08-06T11:08:28;100382.01;;;17.69;100.00
19789;BME280;10054;59.332;18.244;2023-08-06T11:11:12;100381.17;;;17.68;100.00
19789;BME280;10054;59.332;18.244;2023-08-06T11:13:46;100381.09;;;17.64;100.00
19789;BME280;10054;59.332;18.244;2023-08-06T11:16:23;100384.89;;;17.62;100.00
19789;BME280;10054;59.332;18.244;2023-08-06T11:18:53;100388.54;;;17.61;100.00
19789;BME280;10054;59.332;18.244;2023-08-06T11:21:23;100380.28;;;17.54;100.00
19789;BME280;10054;59.332;18.244;2023-08-06T11:23:53;100379.04;;;17.49;100.00
19789;BME280;10054;59.332;18.244;2023-08-06T11:26:22;100380.17;;;17.46;100.00
19789;BME280;10054;59.332;18.244;2023-08-06T11:28:52;100380.46;;;17.43;100.00
19789;BME280;10054;59.332;18.244;2023-08-06T11:31:21;100383.48;;;17.44;100.00
19789;BME280;10054;59.332;18.244;2023-08-06T11:33:52;100392.31;;;17.45;100.00
19789;BME280;10054;59.332;18.244;2023-08-06T11:36:36;100400.46;;;17.43;100.00
19789;BME280;10054;59.332;18.244;2023-08-06T11:39:04;100405.94;;;17.41;100.00
19789;BME280;10054;59.332;18.244;2023-08-06T11:41:34;100398.23;;;17.38;100.00
19789;BME280;10054;59.332;18.244;2023-08-06T11:44:05;100399.36;;;17.36;100.00
19789;BME280;10054;59.332;18.244;2023-08-06T11:46:54;100396.00;;;17.34;100.00
19789;BME280;10054;59.332;18.244;2023-08-06T11:52:22;100395.59;;;17.29;100.00
19789;BME280;10054;59.332;18.244;2023-08-06T11:55:01;100398.89;;;17.27;100.00
19789;BME280;10054;59.332;18.244;2023-08-06T11:57:43;100397.84;;;17.24;100.00
19789;BME280;10054;59.332;18.244;2023-08-06T12:00:14;100381.50;;;17.23;100.00
19789;BME280;10054;59.332;18.244;2023-08-06T12:02:46;100374.48;;;17.22;100.00
19789;BME280;10054;59.332;18.244;2023-08-06T12:05:20;100371.33;;;17.22;100.00
19789;BME280;10054;59.332;18.244;2023-08-06T12:07:59;100372.66;;;17.22;100.00
19789;BME280;10054;59.332;18.244;2023-08-06T12:10:30;100372.81;;;17.21;100.00
19789;BME280;10054;59.332;18.244;2023-08-06T12:13:00;100368.11;;;17.19;100.00
19789;BME280;10054;59.332;18.244;2023-08-06T12:15:30;100374.92;;;17.17;100.00
19789;BME280;10054;59.332;18.244;2023-08-06T12:17:59;100365.04;;;17.14;100.00
19789;BME280;10054;59.332;18.244;2023-08-06T12:20:28;100363.50;;;17.11;100.00
19789;BME280;10054;59.332;18.244;2023-08-06T12:22:57;100356.81;;;17.07;100.00
19789;BME280;10054;59.332;18.244;2023-08-06T12:25:25;100356.11;;;17.05;100.00
19789;BME280;10054;59.332;18.244;2023-08-06T12:27:56;100354.86;;;16.99;100.00
19789;BME280;10054;59.332;18.244;2023-08-06T12:30:25;100357.25;;;16.93;100.00
19789;BME280;10054;59.332;18.244;2023-08-06T12:32:54;100355.44;;;16.93;100.00
19789;BME280;10054;59.332;18.244;2023-08-06T12:35:23;100349.27;;;16.93;100.00
19789;BME280;10054;59.332;18.244;2023-08-06T12:37:53;100336.72;;;16.89;100.00
19789;BME280;10054;59.332;18.244;2023-08-06T12:40:22;100333.70;;;16.88;100.00
19789;BME280;10054;59.332;18.244;2023-08-06T12:42:51;100320.73;;;16.89;100.00
19789;BME280;10054;59.332;18.244;2023-08-06T12:45:20;100327.68;;;16.86;100.00
19789;BME280;10054;59.332;18.244;2023-08-06T12:47:48;100324.17;;;16.86;100.00
19789;BME280;10054;59.332;18.244;2023-08-06T12:50:17;100329.36;;;16.87;100.00
19789;BME280;10054;59.332;18.244;2023-08-06T12:52:46;100321.02;;;16.86;100.00
19789;BME280;10054;59.332;18.244;2023-08-06T12:55:14;100318.35;;;16.86;100.00
19789;BME280;10054;59.332;18.244;2023-08-06T12:57:43;100319.83;;;16.85;100.00
19789;BME280;10054;59.332;18.244;2023-08-06T13:00:12;100318.78;;;16.82;100.00